Highland, Arkansas
Current Conditions -  °F | °C
As of 12:35 PM on Sunday 23 Nov 2014 (Local Time) from KARG Reporting Station
Overcast Overcast  
Wind Chill: 57°   Ceiling: 600
Heat Index: 57°   Visibility: 6mi
Dew Point: 55°   Wind: 13mph
Humidity: 94%   Direction: 130°SE
Pressure: 29.43"   Gusts: NA
Location:  36.3439°N, 91.3866°W
Report Text: KARG 231835Z AUTO 13011KT 6SM BKN006 OVC013 14/13 A2943 RMK AO1
Loading
Personal Weather Stations






























Interactive Weather Map New forecast layout! Learn more

10-Day Weather Forecast

Advertisements
Track Severe Weather on mobile